createdAt,value
2023-02-05T00:04:24.245Z,6.72
2023-02-05T00:09:29.081Z,7.75
2023-02-05T00:14:34.177Z,9.98
2023-02-05T00:19:37.978Z,10.35
2023-02-05T00:24:41.899Z,9.17
2023-02-05T00:29:46.021Z,9.40
2023-02-05T00:34:50.181Z,7.87
2023-02-05T00:39:54.040Z,7.30
2023-02-05T00:44:57.878Z,9.33
2023-02-05T00:50:01.966Z,12.03
2023-02-05T00:55:07.301Z,13.10
2023-02-05T01:00:11.770Z,11.07
2023-02-05T01:05:15.728Z,7.63
2023-02-05T01:10:19.660Z,8.83
2023-02-05T01:15:23.730Z,7.20
2023-02-05T01:20:27.770Z,10.37
2023-02-05T01:25:31.993Z,11.23
2023-02-05T01:30:37.182Z,11.40
2023-02-05T01:35:42.844Z,9.93
2023-02-05T01:40:46.797Z,9.13
2023-02-05T01:46:17.441Z,6.80
2023-02-05T01:51:22.645Z,12.23
2023-02-05T01:56:33.162Z,11.13
2023-02-05T02:01:38.595Z,7.40
2023-02-05T02:06:42.664Z,9.97
2023-02-05T02:11:46.625Z,10.37
2023-02-05T02:16:53.319Z,10.77
2023-02-05T02:22:21.831Z,7.57
2023-02-05T02:27:42.439Z,13.17
2023-02-05T02:32:52.709Z,7.17
2023-02-05T02:38:05.197Z,9.47
2023-02-05T02:43:26.195Z,9.67
2023-02-05T02:48:33.892Z,6.30
2023-02-05T02:53:45.254Z,7.47
2023-02-05T02:58:59.334Z,8.77
2023-02-05T03:04:13.225Z,8.07
2023-02-05T03:10:06.144Z,17.97
2023-02-05T03:15:11.898Z,23.63
2023-02-05T03:20:25.126Z,14.90
2023-02-05T03:25:31.057Z,13.13
2023-02-05T03:31:13.433Z,10.37
2023-02-05T03:36:47.209Z,12.40
2023-02-05T03:42:37.709Z,12.43
2023-02-05T03:48:20.386Z,10.10
2023-02-05T03:53:38.243Z,9.67
2023-02-05T03:58:50.164Z,12.37
2023-02-05T04:03:56.226Z,10.40
2023-02-05T04:09:01.164Z,10.88
2023-02-05T04:14:07.385Z,11.10
2023-02-05T04:19:13.122Z,13.32
2023-02-05T04:24:17.414Z,13.30
2023-02-05T04:29:22.524Z,12.88
2023-02-05T04:35:06.668Z,12.10
2023-02-05T04:40:11.107Z,13.00
2023-02-05T04:45:16.556Z,15.05
2023-02-05T04:50:20.359Z,13.77
2023-02-05T04:55:24.380Z,13.97
2023-02-05T05:00:28.569Z,13.80
2023-02-05T05:05:33.829Z,16.13
2023-02-05T05:10:39.480Z,16.40
2023-02-05T05:15:43.446Z,23.53
2023-02-05T05:20:47.471Z,26.67
2023-02-05T05:25:51.911Z,28.83
2023-02-05T05:30:56.007Z,25.80
2023-02-05T05:35:59.819Z,30.87
2023-02-05T05:41:22.449Z,33.40
2023-02-05T05:46:27.569Z,39.73
2023-02-05T05:51:33.195Z,42.83
2023-02-05T05:56:36.998Z,42.63
2023-02-05T06:01:40.800Z,43.70
2023-02-05T06:06:44.709Z,48.57
2023-02-05T06:11:49.679Z,47.03
2023-02-05T06:16:55.948Z,46.50
2023-02-05T06:21:59.621Z,54.75
2023-02-05T06:27:03.539Z,53.60
2023-02-05T06:32:08.543Z,50.63
2023-02-05T06:37:12.331Z,47.67
2023-02-05T06:42:16.239Z,50.00
2023-02-05T06:47:20.031Z,50.43
2023-02-05T06:52:23.994Z,47.30
2023-02-05T06:57:27.924Z,43.50
2023-02-05T07:02:31.944Z,48.00
2023-02-05T07:07:36.182Z,42.90
2023-02-05T07:12:40.044Z,46.37
2023-02-05T07:17:43.991Z,49.27
2023-02-05T07:22:47.830Z,48.87
2023-02-05T07:27:51.983Z,47.40
2023-02-05T07:32:56.182Z,47.87
2023-02-05T07:38:00.098Z,45.60
2023-02-05T07:43:04.245Z,49.57
2023-02-05T07:48:08.134Z,47.03
2023-02-05T07:53:12.012Z,49.47
2023-02-05T07:58:16.136Z,52.23
2023-02-05T08:03:20.736Z,48.53
2023-02-05T08:08:26.303Z,54.17
2023-02-05T08:13:30.679Z,52.83
2023-02-05T08:18:35.361Z,51.93
2023-02-05T08:23:39.139Z,46.87
2023-02-05T08:28:44.636Z,52.53
2023-02-05T08:33:51.358Z,49.73
2023-02-05T08:38:55.339Z,52.13
2023-02-05T08:43:59.211Z,49.27
2023-02-05T08:49:03.114Z,48.63
2023-02-05T08:54:09.986Z,51.70
2023-02-05T08:59:15.022Z,53.47
2023-02-05T09:04:21.242Z,48.73
2023-02-05T09:09:26.105Z,49.47
2023-02-05T09:14:36.943Z,50.77
2023-02-05T09:19:42.353Z,53.00
2023-02-05T09:24:46.299Z,51.67
2023-02-05T09:29:50.256Z,51.80
2023-02-05T09:34:54.428Z,54.47
2023-02-05T09:40:20.920Z,51.53
2023-02-05T09:45:40.542Z,50.63
2023-02-05T09:50:44.976Z,46.00
2023-02-05T09:55:49.591Z,46.30
2023-02-05T10:01:05.165Z,50.13
2023-02-05T10:06:22.214Z,50.60
2023-02-05T10:11:59.146Z,47.13
2023-02-05T10:17:36.100Z,50.47
2023-02-05T10:23:07.749Z,49.78
2023-02-05T10:28:29.942Z,46.60
2023-02-05T10:33:42.357Z,46.43
2023-02-05T10:38:47.838Z,45.73
2023-02-05T10:44:04.411Z,42.43
2023-02-05T10:49:20.859Z,43.47
2023-02-05T10:54:30.835Z,41.70
2023-02-05T10:59:59.660Z,41.97
2023-02-05T11:05:28.451Z,39.27
2023-02-05T11:10:36.501Z,38.60
2023-02-05T11:16:05.669Z,36.77
2023-02-05T11:21:10.800Z,38.63
2023-02-05T11:26:21.837Z,40.37
2023-02-05T11:31:28.561Z,38.30
2023-02-05T11:36:32.503Z,29.95
2023-02-05T11:41:58.068Z,35.63
2023-02-05T11:47:04.622Z,37.10
2023-02-05T11:52:16.387Z,34.80
2023-02-05T11:57:23.292Z,40.33
2023-02-05T12:02:29.255Z,47.75
2023-02-05T12:07:47.241Z,70.57
2023-02-05T12:13:06.651Z,31.00
2023-02-05T12:18:22.631Z,30.50
2023-02-05T12:24:11.176Z,36.93
2023-02-05T12:29:32.248Z,40.83
2023-02-05T12:34:47.673Z,43.73
2023-02-05T12:40:01.331Z,43.27
2023-02-05T12:45:30.780Z,41.50
2023-02-05T12:51:09.624Z,31.00
2023-02-05T12:56:37.951Z,36.00
2023-02-05T13:01:52.205Z,34.30
2023-02-05T13:07:06.436Z,33.20
2023-02-05T13:12:16.318Z,29.73
2023-02-05T13:17:31.256Z,41.57
2023-02-05T13:23:06.197Z,57.33
2023-02-05T13:28:41.824Z,69.27
2023-02-05T13:33:46.192Z,50.00
2023-02-05T13:39:02.627Z,43.37
2023-02-05T13:49:38.258Z,30.40
2023-02-05T13:54:59.825Z,26.70
2023-02-05T14:00:06.929Z,30.87
2023-02-05T14:05:16.242Z,28.37
2023-02-05T14:10:29.096Z,28.27
2023-02-05T14:15:44.186Z,30.90
2023-02-05T14:20:48.265Z,30.27
2023-02-05T14:26:04.639Z,25.57
2023-02-05T14:36:18.679Z,18.57
2023-02-05T14:41:28.076Z,19.57
2023-02-05T14:46:45.897Z,25.23
2023-02-05T14:52:00.230Z,24.43
2023-02-05T14:57:50.122Z,27.03
2023-02-05T15:03:07.584Z,23.67
2023-02-05T15:08:21.909Z,25.00
2023-02-05T15:13:27.183Z,19.27
2023-02-05T15:18:34.664Z,22.10
2023-02-05T15:23:49.568Z,20.37
2023-02-05T15:29:02.555Z,19.27
2023-02-05T15:34:30.071Z,19.03
2023-02-05T15:39:56.437Z,18.80
2023-02-05T15:45:00.367Z,20.50
2023-02-05T15:50:05.776Z,20.00
2023-02-05T15:55:15.639Z,18.95
2023-02-05T16:00:23.316Z,16.90
2023-02-05T16:05:29.742Z,20.40
2023-02-05T16:10:35.615Z,17.40
2023-02-05T16:15:47.797Z,18.60
2023-02-05T16:20:57.628Z,17.37
2023-02-05T16:26:16.760Z,16.93
2023-02-05T16:31:24.537Z,15.53
2023-02-05T16:36:37.395Z,19.67
2023-02-05T16:41:44.290Z,21.67
2023-02-05T16:47:21.030Z,21.53
2023-02-05T16:52:36.398Z,18.27
2023-02-05T16:57:40.896Z,16.85
2023-02-05T17:02:45.680Z,15.30
2023-02-05T17:08:02.076Z,15.87
2023-02-05T17:13:08.195Z,17.40
2023-02-05T17:18:19.657Z,15.57
2023-02-05T17:23:23.444Z,14.83
2023-02-05T17:28:30.937Z,16.27
2023-02-05T17:33:34.767Z,17.40
2023-02-05T17:38:38.518Z,16.23
2023-02-05T17:43:42.569Z,16.97
2023-02-05T17:48:46.442Z,19.67
2023-02-05T17:53:51.335Z,18.47
2023-02-05T17:58:56.686Z,14.63
2023-02-05T18:04:00.377Z,19.25
2023-02-05T18:09:07.824Z,16.63
2023-02-05T18:14:14.275Z,16.23
2023-02-05T18:19:20.984Z,17.20
2023-02-05T18:24:25.070Z,16.33
2023-02-05T18:29:29.211Z,15.63
2023-02-05T18:34:33.384Z,20.30
2023-02-05T18:39:37.267Z,15.87
2023-02-05T18:44:41.128Z,22.67
2023-02-05T18:49:44.895Z,17.37
2023-02-05T18:54:53.326Z,15.67
2023-02-05T18:59:57.251Z,17.40
2023-02-05T19:05:03.339Z,17.73
2023-02-05T19:10:07.454Z,20.23
2023-02-05T19:15:11.190Z,17.90
2023-02-05T19:20:15.058Z,21.77
2023-02-05T19:25:22.142Z,21.50
2023-02-05T19:30:26.285Z,20.30
2023-02-05T19:35:33.088Z,17.80
2023-02-05T19:40:37.428Z,13.10
2023-02-05T19:45:41.254Z,16.63
2023-02-05T19:50:45.286Z,16.70
2023-02-05T19:55:49.273Z,18.57
2023-02-05T20:00:53.185Z,15.30
2023-02-05T20:06:01.762Z,10.57
2023-02-05T20:11:06.317Z,16.03
2023-02-05T20:16:14.665Z,19.00
2023-02-05T20:21:20.101Z,19.17
2023-02-05T20:31:38.725Z,17.13
2023-02-05T20:36:42.415Z,16.97
2023-02-05T20:41:47.965Z,20.40
2023-02-05T20:46:51.850Z,17.93
2023-02-05T20:51:55.922Z,17.90
2023-02-05T20:56:59.878Z,25.37
2023-02-05T21:02:04.906Z,19.27
2023-02-05T21:07:08.828Z,19.33
2023-02-05T21:12:12.494Z,14.33
2023-02-05T21:17:16.426Z,18.47
2023-02-05T21:22:20.156Z,16.73
2023-02-05T21:27:25.894Z,19.53
2023-02-05T21:32:31.322Z,15.80
2023-02-05T21:37:35.363Z,19.08
2023-02-05T21:42:39.110Z,14.90
2023-02-05T21:47:43.012Z,17.33
2023-02-05T21:52:47.012Z,13.50
2023-02-05T21:57:50.780Z,15.33
2023-02-05T22:02:54.619Z,17.40
2023-02-05T22:07:58.529Z,13.90
2023-02-05T22:13:02.178Z,9.93
2023-02-05T22:18:06.197Z,15.40
2023-02-05T22:23:09.998Z,16.20
2023-02-05T22:28:14.197Z,1.57
2023-02-05T22:33:18.497Z,11.43
2023-02-05T22:38:22.186Z,12.97
2023-02-05T22:43:26.322Z,14.63
2023-02-05T22:48:30.198Z,8.10
2023-02-05T22:53:35.162Z,14.00
2023-02-05T22:58:41.859Z,17.48
2023-02-05T23:03:48.163Z,11.00
2023-02-05T23:08:58.013Z,8.83
2023-02-05T23:14:03.449Z,0.90
2023-02-05T23:19:10.895Z,11.77
2023-02-05T23:24:15.431Z,8.80
2023-02-05T23:29:19.959Z,12.05
2023-02-05T23:34:24.106Z,14.23
2023-02-05T23:39:27.987Z,12.30
2023-02-05T23:44:32.274Z,8.13
2023-02-05T23:49:36.097Z,8.80
2023-02-05T23:54:39.845Z,14.53
2023-02-05T23:59:43.703Z,10.30
